Estación meteorológica de Granollers (Vallès Oriental, Consorci Besos Tordera)

Consulta los datos en tiempo real de la estación meteorológica de Granollers





Hora UTC 10:10
Temperatura 21.6 ºC
Humedad 57.9 %
Pluja 0.1 mm
Velocidad viento 7.8 km/h
Dirección viento NNE

Datos diarios 2026-05-04



Hora UTC (invierno +1h; verano +2h)
Temperatura (ºC) Humedad (%) Velocidad viento (km/h) Precipitación (mm)
Hora UTC Aire Humedad Vel. Dir. Vel. Max Dir. Intent. máx 5 min.
00:05 14.4 95.1 0.9 NNE 0.9 N 0.0
00:10 14.4 95.3 0.1 NNE 1.8 NNW 0.1
00:15 14.4 95.3 0.1 NNE 1.8 0.0
00:20 14.5 95.6 0.1 NNE 1.4 0.0
00:25 14.5 95.6 0.4 NNE 2.5 E 0.0
00:30 14.6 95.5 1.5 NNE 2.8 NE 0.0
00:35 14.7 95.2 0.1 NNE 1.1 NE 0.0
00:40 14.7 95.1 0.3 NNE 2.1 ENE 0.0
00:45 14.7 95.3 0.0 NNE 0.0 ESE 0.0
00:50 14.6 95.2 0.0 NNE 0.0 N 0.0
00:55 14.6 95.4 1.0 NNE 3.2 ESE 0.0
01:00 14.7 95.2 1.8 NNE 3.9 ESE 0.0
01:05 14.7 94.5 1.9 NNE 3.5 ESE 0.0
01:10 14.8 94.1 3.2 NNE 4.9 ESE 0.0
01:15 14.8 94.0 2.3 NNE 4.6 ESE 0.0
01:20 14.8 94.0 0.7 NNE 2.5 SSE 0.0
01:25 14.8 94.1 1.8 NNE 3.2 S 0.0
01:30 14.8 94.2 2.0 NNE 3.9 S 0.0
01:35 14.8 94.2 2.4 NNE 4.9 S 0.0
01:40 14.7 94.3 2.4 NNE 4.6 S 0.0
01:45 14.7 94.4 2.4 NNE 4.2 S 0.0
01:50 14.7 94.4 1.3 NNE 3.5 S 0.0
01:55 14.8 94.4 0.9 NNE 3.5 SE 0.0
02:00 14.8 94.4 0.2 NNE 2.5 SSW 0.0
02:05 14.8 94.2 2.3 NNE 4.2 SE 0.0
02:10 14.8 94.2 1.9 NNE 4.2 SE 0.0
02:15 14.9 94.2 0.6 NNE 3.2 E 0.0
02:20 14.9 94.3 1.0 NNE 3.5 E 0.0
02:25 14.9 94.2 1.4 NNE 3.9 ESE 0.0
02:30 15.0 94.2 0.7 NNE 2.5 ESE 0.0
02:35 15.0 93.9 2.5 NNE 4.6 SSE 0.0
02:40 15.0 93.4 1.9 NNE 4.2 S 0.0
02:45 15.0 93.4 0.4 NNE 1.8 WSW 0.0
02:50 15.0 93.7 1.2 NNE 3.2 S 0.0
02:55 15.0 94.0 1.6 NNE 3.9 SSE 0.0
03:00 15.0 94.1 0.4 NNE 2.1 SW 0.0
03:05 14.9 94.3 0.0 NNE 1.1 SW 0.0
03:10 14.9 94.4 0.0 NNE 0.0 SW 0.0
03:15 14.9 94.5 1.4 NNE 4.6 SE 0.0
03:20 15.0 94.0 4.3 NNE 6.7 S 0.0
03:25 15.1 92.9 2.3 NNE 5.3 SSE 0.0
03:30 15.2 92.5 2.9 NNE 5.3 SE 0.0
03:35 15.3 92.0 3.2 NNE 6.4 ESE 0.0
03:40 15.3 91.7 2.5 NNE 6.0 SSE 0.0
03:45 15.3 91.6 2.6 NNE 5.6 SE 0.0
03:50 15.2 91.7 1.0 NNE 3.9 S 0.0
03:55 15.1 92.4 1.9 NNE 3.2 WNW 0.0
04:00 15.0 93.2 0.9 NNE 4.2 WNW 0.0
04:05 15.0 93.5 1.6 NNE 3.5 SW 0.0
04:10 14.9 93.6 0.4 NNE 2.1 SSW 0.0
04:15 14.9 93.7 0.6 NNE 2.1 SW 0.0
04:20 14.8 93.8 0.7 NNE 2.1 WSW 0.0
04:25 14.9 94.2 0.9 NNE 2.5 SSW 0.0
04:30 14.9 94.4 0.0 NNE 0.0 SW 0.0
04:35 14.9 94.4 0.0 NNE 0.0 SW 0.0
04:40 14.8 94.5 0.0 NNE 0.0 WSW 0.0
04:45 14.7 94.8 1.3 NNE 2.5 SSW 0.0
04:50 14.7 94.9 1.3 NNE 3.2 SW 0.0
04:55 14.6 95.0 0.3 NNE 2.5 NW 0.0
05:00 14.6 95.4 0.5 NNE 2.8 SSW 0.0
05:05 14.8 95.7 0.9 NNE 2.1 SSW 0.0
05:10 14.9 95.4 1.4 NNE 2.5 SSW 0.0
05:15 14.8 95.2 0.8 NNE 1.8 SW 0.0
05:20 14.7 95.2 0.0 NNE 0.0 W 0.0
05:25 14.7 95.4 0.2 NNE 1.4 SW 0.0
05:30 14.9 95.7 0.5 NNE 2.1 SSW 0.0
05:35 15.0 95.6 1.1 NNE 5.3 SSE 0.0
05:40 15.1 95.0 3.3 NNE 6.0 SE 0.0
05:45 15.1 94.3 3.6 NNE 6.0 SE 0.0
05:50 15.0 93.7 4.5 NNE 7.4 SE 0.0
05:55 15.0 93.2 3.7 NNE 6.7 SE 0.0
06:00 15.1 92.9 2.7 NNE 5.6 SE 0.0
06:05 15.2 91.9 3.4 NNE 7.1 SE 0.0
06:10 15.3 91.2 2.7 NNE 6.7 SE 0.0
06:15 15.6 90.2 3.2 NNE 8.1 SSE 0.0
06:20 15.7 88.9 4.0 NNE 9.2 S 0.0
06:25 15.8 87.9 3.6 NNE 7.4 S 0.0
06:30 15.9 87.2 2.6 NNE 4.9 S 0.0
06:35 16.1 87.3 0.4 NNE 2.8 SSW 0.0
06:40 16.5 86.0 0.5 NNE 2.5 S 0.0
06:45 16.7 83.8 1.1 NNE 3.9 SW 0.0
06:50 17.0 82.0 1.4 NNE 3.5 SW 0.0
06:55 17.1 81.5 2.4 NNE 6.4 SSW 0.0
07:00 17.3 82.2 1.5 NNE 3.2 WSW 0.0
07:05 17.4 80.7 3.3 NNE 8.1 SW 0.0
07:10 17.6 79.3 4.1 NNE 9.2 SSW 0.0
07:15 17.7 79.2 3.8 NNE 8.1 WSW 0.0
07:20 17.8 78.5 4.0 NNE 9.2 SSW 0.0
07:25 17.9 78.2 3.7 NNE 9.9 SSW 0.0
07:30 17.8 77.0 4.2 NNE 10.2 SSW 0.0
07:35 18.0 77.5 2.7 NNE 7.1 WSW 0.0
07:40 18.3 76.3 4.1 NNE 8.5 SW 0.0
07:45 18.5 73.5 3.1 NNE 7.4 SW 0.0
07:50 18.8 73.1 3.2 NNE 12.7 SSW 0.0
07:55 18.9 71.8 4.6 NNE 10.9 SW 0.0
08:00 18.9 70.6 5.2 NNE 9.9 SSW 0.0
08:05 19.0 70.3 3.8 NNE 15.5 WSW 0.0
08:10 19.3 67.7 7.7 NNE 11.6 SW 0.0
08:15 19.4 66.2 1.9 NNE 6.0 SW 0.0
08:20 19.8 65.2 2.7 NNE 4.9 S 0.0
08:25 20.1 64.4 3.9 NNE 8.5 SW 0.0
08:30 19.9 65.1 4.0 NNE 9.2 SW 0.0
08:35 20.2 63.7 2.2 NNE 6.7 WSW 0.0
08:40 20.1 64.0 5.0 NNE 11.6 SSW 0.0
08:45 20.0 65.6 6.8 NNE 11.6 SSE 0.0
08:50 20.1 64.5 6.8 NNE 12.0 S 0.0
08:55 20.2 64.8 7.7 NNE 14.1 SSE 0.0
09:00 20.5 64.0 5.5 NNE 10.2 S 0.0
09:05 20.1 64.6 6.1 NNE 11.6 SSW 0.0
09:10 20.4 64.8 5.1 NNE 11.3 S 0.0
09:15 20.7 62.8 6.2 NNE 10.6 SSE 0.0
09:20 20.8 62.7 5.4 NNE 14.1 SSW 0.0
09:25 20.7 62.6 6.2 NNE 10.9 SSW 0.0
09:30 20.8 61.3 5.4 NNE 11.6 SSW 0.0
09:35 21.0 61.8 5.6 NNE 10.2 SW 0.0
09:40 21.7 59.1 6.8 NNE 12.4 SSE 0.0
09:45 21.8 58.2 5.1 NNE 12.4 S 0.0
09:50 22.2 57.5 6.4 NNE 14.1 SSW 0.0
09:55 22.1 57.2 7.2 NNE 12.0 SSW 0.0
10:00 21.8 57.5 9.0 NNE 16.6 S 0.0
10:05 21.7 58.0 7.8 NNE 13.1 SW 0.0
10:10 21.6 57.9 7.8 NNE 18.4 S 0.0
Máxima 22.2 95.7 9.0 NNE 18.4 S 0.1
Mínima 14.4 57.2
Total 0.1